sensor_id;sensor_type;location;lat;lon;timestamp;P1;durP1;ratioP1;P2;durP2;ratioP2
56860;SDS011;42744;51.094;3.490;2023-04-25T00:01:40;17.63;;;4.57;;
56860;SDS011;42744;51.094;3.490;2023-04-25T00:04:06;15.73;;;4.80;;
56860;SDS011;42744;51.094;3.490;2023-04-25T00:06:33;14.73;;;4.57;;
56860;SDS011;42744;51.094;3.490;2023-04-25T00:09:02;12.57;;;4.07;;
56860;SDS011;42744;51.094;3.490;2023-04-25T00:11:35;18.10;;;5.17;;
56860;SDS011;42744;51.094;3.490;2023-04-25T00:14:02;17.43;;;4.30;;
56860;SDS011;42744;51.094;3.490;2023-04-25T00:16:29;19.47;;;4.87;;
56860;SDS011;42744;51.094;3.490;2023-04-25T00:18:59;18.73;;;4.80;;
56860;SDS011;42744;51.094;3.490;2023-04-25T00:21:26;13.17;;;4.23;;
56860;SDS011;42744;51.094;3.490;2023-04-25T00:23:53;12.87;;;3.90;;
56860;SDS011;42744;51.094;3.490;2023-04-25T00:26:20;16.50;;;4.67;;
56860;SDS011;42744;51.094;3.490;2023-04-25T00:28:46;15.33;;;4.33;;
56860;SDS011;42744;51.094;3.490;2023-04-25T00:31:13;15.47;;;4.40;;
56860;SDS011;42744;51.094;3.490;2023-04-25T00:33:39;12.30;;;3.70;;
56860;SDS011;42744;51.094;3.490;2023-04-25T00:36:05;15.47;;;4.53;;
56860;SDS011;42744;51.094;3.490;2023-04-25T00:38:32;18.43;;;4.70;;
56860;SDS011;42744;51.094;3.490;2023-04-25T00:40:58;14.50;;;4.00;;
56860;SDS011;42744;51.094;3.490;2023-04-25T00:43:27;13.47;;;4.63;;
56860;SDS011;42744;51.094;3.490;2023-04-25T00:45:55;15.27;;;4.30;;
56860;SDS011;42744;51.094;3.490;2023-04-25T00:48:23;15.60;;;4.63;;
56860;SDS011;42744;51.094;3.490;2023-04-25T00:50:52;15.90;;;4.70;;
56860;SDS011;42744;51.094;3.490;2023-04-25T00:53:20;13.47;;;3.77;;
56860;SDS011;42744;51.094;3.490;2023-04-25T00:55:47;16.67;;;4.00;;
56860;SDS011;42744;51.094;3.490;2023-04-25T00:58:19;12.87;;;4.37;;
56860;SDS011;42744;51.094;3.490;2023-04-25T01:00:47;13.73;;;4.17;;
56860;SDS011;42744;51.094;3.490;2023-04-25T01:03:14;16.30;;;4.10;;
56860;SDS011;42744;51.094;3.490;2023-04-25T01:05:47;18.07;;;4.53;;
56860;SDS011;42744;51.094;3.490;2023-04-25T01:08:14;13.80;;;3.87;;
56860;SDS011;42744;51.094;3.490;2023-04-25T01:10:40;14.13;;;4.27;;
56860;SDS011;42744;51.094;3.490;2023-04-25T01:13:07;15.67;;;3.57;;
56860;SDS011;42744;51.094;3.490;2023-04-25T01:15:33;17.43;;;4.20;;
56860;SDS011;42744;51.094;3.490;2023-04-25T01:18:01;12.70;;;4.27;;
56860;SDS011;42744;51.094;3.490;2023-04-25T01:20:27;12.10;;;3.47;;
56860;SDS011;42744;51.094;3.490;2023-04-25T01:22:55;20.57;;;4.40;;
56860;SDS011;42744;51.094;3.490;2023-04-25T01:25:22;17.10;;;4.30;;
56860;SDS011;42744;51.094;3.490;2023-04-25T01:27:48;14.37;;;4.10;;
56860;SDS011;42744;51.094;3.490;2023-04-25T01:30:15;13.27;;;4.20;;
56860;SDS011;42744;51.094;3.490;2023-04-25T01:32:41;10.53;;;3.73;;
56860;SDS011;42744;51.094;3.490;2023-04-25T01:35:09;14.37;;;3.77;;
56860;SDS011;42744;51.094;3.490;2023-04-25T01:37:39;19.17;;;4.33;;
56860;SDS011;42744;51.094;3.490;2023-04-25T01:40:08;13.07;;;3.77;;
56860;SDS011;42744;51.094;3.490;2023-04-25T01:42:36;11.33;;;3.73;;
56860;SDS011;42744;51.094;3.490;2023-04-25T01:45:05;11.47;;;3.50;;
56860;SDS011;42744;51.094;3.490;2023-04-25T01:47:32;12.53;;;3.63;;
56860;SDS011;42744;51.094;3.490;2023-04-25T01:50:01;13.73;;;3.67;;
56860;SDS011;42744;51.094;3.490;2023-04-25T01:52:32;16.33;;;4.20;;
56860;SDS011;42744;51.094;3.490;2023-04-25T01:54:59;20.60;;;4.20;;
56860;SDS011;42744;51.094;3.490;2023-04-25T01:57:31;11.43;;;3.37;;
56860;SDS011;42744;51.094;3.490;2023-04-25T01:59:59;13.43;;;4.20;;
56860;SDS011;42744;51.094;3.490;2023-04-25T02:02:37;9.77;;;3.67;;
56860;SDS011;42744;51.094;3.490;2023-04-25T02:05:04;10.63;;;3.67;;
56860;SDS011;42744;51.094;3.490;2023-04-25T02:07:32;15.37;;;3.90;;
56860;SDS011;42744;51.094;3.490;2023-04-25T02:09:58;10.90;;;3.57;;
56860;SDS011;42744;51.094;3.490;2023-04-25T02:12:29;9.07;;;3.67;;
56860;SDS011;42744;51.094;3.490;2023-04-25T02:14:57;16.10;;;3.87;;
56860;SDS011;42744;51.094;3.490;2023-04-25T02:17:23;13.73;;;3.90;;
56860;SDS011;42744;51.094;3.490;2023-04-25T02:19:49;11.70;;;3.77;;
56860;SDS011;42744;51.094;3.490;2023-04-25T02:22:15;12.33;;;4.53;;
56860;SDS011;42744;51.094;3.490;2023-04-25T02:24:41;11.40;;;3.97;;
56860;SDS011;42744;51.094;3.490;2023-04-25T02:27:07;16.53;;;4.20;;
56860;SDS011;42744;51.094;3.490;2023-04-25T02:29:34;8.07;;;3.23;;
56860;SDS011;42744;51.094;3.490;2023-04-25T02:32:00;12.33;;;3.77;;
56860;SDS011;42744;51.094;3.490;2023-04-25T02:34:26;11.53;;;3.90;;
56860;SDS011;42744;51.094;3.490;2023-04-25T02:36:52;15.33;;;4.10;;
56860;SDS011;42744;51.094;3.490;2023-04-25T02:39:18;15.97;;;4.40;;
56860;SDS011;42744;51.094;3.490;2023-04-25T02:41:44;16.00;;;4.60;;
56860;SDS011;42744;51.094;3.490;2023-04-25T02:44:10;17.37;;;4.23;;
56860;SDS011;42744;51.094;3.490;2023-04-25T02:46:36;13.40;;;4.17;;
56860;SDS011;42744;51.094;3.490;2023-04-25T02:49:02;18.83;;;4.00;;
56860;SDS011;42744;51.094;3.490;2023-04-25T02:51:29;16.30;;;3.80;;
56860;SDS011;42744;51.094;3.490;2023-04-25T02:53:55;15.33;;;4.50;;
56860;SDS011;42744;51.094;3.490;2023-04-25T02:56:21;12.03;;;3.80;;
56860;SDS011;42744;51.094;3.490;2023-04-25T02:58:47;13.40;;;5.03;;
56860;SDS011;42744;51.094;3.490;2023-04-25T03:01:13;11.13;;;3.67;;
56860;SDS011;42744;51.094;3.490;2023-04-25T03:03:40;19.67;;;4.47;;
56860;SDS011;42744;51.094;3.490;2023-04-25T03:06:06;15.10;;;4.60;;
56860;SDS011;42744;51.094;3.490;2023-04-25T03:08:32;13.87;;;3.23;;
56860;SDS011;42744;51.094;3.490;2023-04-25T03:10:59;11.60;;;2.93;;
56860;SDS011;42744;51.094;3.490;2023-04-25T03:13:26;7.83;;;3.03;;
56860;SDS011;42744;51.094;3.490;2023-04-25T03:15:52;10.70;;;3.50;;
56860;SDS011;42744;51.094;3.490;2023-04-25T03:18:18;14.17;;;4.40;;
56860;SDS011;42744;51.094;3.490;2023-04-25T03:20:45;16.03;;;3.63;;
56860;SDS011;42744;51.094;3.490;2023-04-25T03:23:11;9.87;;;3.13;;
56860;SDS011;42744;51.094;3.490;2023-04-25T03:25:40;12.47;;;3.33;;
56860;SDS011;42744;51.094;3.490;2023-04-25T03:28:06;9.63;;;2.97;;
56860;SDS011;42744;51.094;3.490;2023-04-25T03:30:32;8.03;;;3.27;;
56860;SDS011;42744;51.094;3.490;2023-04-25T03:32:58;7.60;;;3.40;;
56860;SDS011;42744;51.094;3.490;2023-04-25T03:35:24;11.43;;;3.53;;
56860;SDS011;42744;51.094;3.490;2023-04-25T03:37:50;9.93;;;3.17;;
56860;SDS011;42744;51.094;3.490;2023-04-25T03:40:17;16.37;;;3.47;;
56860;SDS011;42744;51.094;3.490;2023-04-25T03:42:43;14.63;;;3.27;;
56860;SDS011;42744;51.094;3.490;2023-04-25T03:45:09;11.43;;;3.30;;
56860;SDS011;42744;51.094;3.490;2023-04-25T03:47:35;11.63;;;3.10;;
56860;SDS011;42744;51.094;3.490;2023-04-25T03:50:01;9.87;;;4.03;;
56860;SDS011;42744;51.094;3.490;2023-04-25T03:52:28;10.50;;;3.30;;
56860;SDS011;42744;51.094;3.490;2023-04-25T03:54:54;9.23;;;3.37;;
56860;SDS011;42744;51.094;3.490;2023-04-25T03:57:21;11.60;;;3.47;;
56860;SDS011;42744;51.094;3.490;2023-04-25T03:59:47;12.93;;;3.53;;
56860;SDS011;42744;51.094;3.490;2023-04-25T04:02:13;9.97;;;3.20;;
56860;SDS011;42744;51.094;3.490;2023-04-25T04:04:39;12.73;;;3.00;;
56860;SDS011;42744;51.094;3.490;2023-04-25T04:07:05;12.13;;;3.23;;
56860;SDS011;42744;51.094;3.490;2023-04-25T04:09:32;13.77;;;3.37;;
56860;SDS011;42744;51.094;3.490;2023-04-25T04:11:58;10.73;;;3.07;;
56860;SDS011;42744;51.094;3.490;2023-04-25T04:14:24;9.20;;;2.87;;
56860;SDS011;42744;51.094;3.490;2023-04-25T04:16:51;10.37;;;3.13;;
56860;SDS011;42744;51.094;3.490;2023-04-25T04:19:18;11.47;;;4.00;;
56860;SDS011;42744;51.094;3.490;2023-04-25T04:21:44;10.17;;;2.73;;
56860;SDS011;42744;51.094;3.490;2023-04-25T04:24:10;9.73;;;2.93;;
56860;SDS011;42744;51.094;3.490;2023-04-25T04:26:38;12.07;;;3.07;;
56860;SDS011;42744;51.094;3.490;2023-04-25T04:29:05;11.17;;;2.70;;
56860;SDS011;42744;51.094;3.490;2023-04-25T04:31:32;8.73;;;3.10;;
56860;SDS011;42744;51.094;3.490;2023-04-25T04:33:58;12.27;;;2.40;;
56860;SDS011;42744;51.094;3.490;2023-04-25T04:36:24;8.80;;;2.97;;
56860;SDS011;42744;51.094;3.490;2023-04-25T04:38:52;10.43;;;2.90;;
56860;SDS011;42744;51.094;3.490;2023-04-25T04:41:19;10.63;;;2.40;;
56860;SDS011;42744;51.094;3.490;2023-04-25T04:43:45;11.60;;;2.33;;
56860;SDS011;42744;51.094;3.490;2023-04-25T04:46:13;9.53;;;3.03;;
56860;SDS011;42744;51.094;3.490;2023-04-25T04:48:40;15.33;;;3.90;;
56860;SDS011;42744;51.094;3.490;2023-04-25T04:51:07;8.50;;;2.97;;
56860;SDS011;42744;51.094;3.490;2023-04-25T04:53:33;8.67;;;2.60;;
56860;SDS011;42744;51.094;3.490;2023-04-25T04:56:00;7.33;;;2.67;;
56860;SDS011;42744;51.094;3.490;2023-04-25T04:58:26;6.23;;;2.33;;
56860;SDS011;42744;51.094;3.490;2023-04-25T05:00:56;11.60;;;3.40;;
56860;SDS011;42744;51.094;3.490;2023-04-25T05:03:25;9.53;;;2.30;;
56860;SDS011;42744;51.094;3.490;2023-04-25T05:05:52;8.67;;;3.30;;
56860;SDS011;42744;51.094;3.490;2023-04-25T05:08:18;7.33;;;2.80;;
56860;SDS011;42744;51.094;3.490;2023-04-25T05:10:45;11.90;;;2.77;;
56860;SDS011;42744;51.094;3.490;2023-04-25T05:13:11;7.30;;;3.00;;
56860;SDS011;42744;51.094;3.490;2023-04-25T05:15:37;7.53;;;2.80;;
56860;SDS011;42744;51.094;3.490;2023-04-25T05:18:04;7.90;;;2.80;;
56860;SDS011;42744;51.094;3.490;2023-04-25T05:20:30;13.47;;;3.03;;
56860;SDS011;42744;51.094;3.490;2023-04-25T05:22:56;8.80;;;2.90;;
56860;SDS011;42744;51.094;3.490;2023-04-25T05:25:23;9.30;;;3.57;;
56860;SDS011;42744;51.094;3.490;2023-04-25T05:27:49;10.93;;;4.13;;
56860;SDS011;42744;51.094;3.490;2023-04-25T05:30:17;13.37;;;3.73;;
56860;SDS011;42744;51.094;3.490;2023-04-25T05:32:43;15.27;;;3.27;;
56860;SDS011;42744;51.094;3.490;2023-04-25T05:35:09;12.53;;;4.27;;
56860;SDS011;42744;51.094;3.490;2023-04-25T05:37:36;10.87;;;3.30;;
56860;SDS011;42744;51.094;3.490;2023-04-25T05:40:03;10.70;;;4.20;;
56860;SDS011;42744;51.094;3.490;2023-04-25T05:42:32;15.73;;;4.87;;
56860;SDS011;42744;51.094;3.490;2023-04-25T05:44:59;8.93;;;2.90;;
56860;SDS011;42744;51.094;3.490;2023-04-25T05:47:26;12.67;;;3.47;;
56860;SDS011;42744;51.094;3.490;2023-04-25T05:49:54;10.67;;;2.63;;
56860;SDS011;42744;51.094;3.490;2023-04-25T05:52:21;9.47;;;2.50;;
56860;SDS011;42744;51.094;3.490;2023-04-25T05:54:48;9.53;;;2.20;;
56860;SDS011;42744;51.094;3.490;2023-04-25T05:57:21;7.17;;;1.73;;
56860;SDS011;42744;51.094;3.490;2023-04-25T05:59:52;9.57;;;1.97;;
56860;SDS011;42744;51.094;3.490;2023-04-25T06:02:18;9.13;;;2.10;;
56860;SDS011;42744;51.094;3.490;2023-04-25T06:04:47;7.87;;;2.27;;
56860;SDS011;42744;51.094;3.490;2023-04-25T06:07:16;4.67;;;1.70;;
56860;SDS011;42744;51.094;3.490;2023-04-25T06:09:43;7.73;;;1.60;;
56860;SDS011;42744;51.094;3.490;2023-04-25T06:12:09;8.33;;;1.80;;
56860;SDS011;42744;51.094;3.490;2023-04-25T06:14:35;9.23;;;2.30;;
56860;SDS011;42744;51.094;3.490;2023-04-25T06:17:02;11.83;;;1.67;;
56860;SDS011;42744;51.094;3.490;2023-04-25T06:19:35;13.20;;;2.17;;
56860;SDS011;42744;51.094;3.490;2023-04-25T06:22:01;7.63;;;2.10;;
56860;SDS011;42744;51.094;3.490;2023-04-25T06:24:30;6.37;;;2.03;;
56860;SDS011;42744;51.094;3.490;2023-04-25T06:26:57;7.03;;;1.73;;
56860;SDS011;42744;51.094;3.490;2023-04-25T06:29:23;8.83;;;1.90;;
56860;SDS011;42744;51.094;3.490;2023-04-25T06:31:49;11.97;;;2.60;;
56860;SDS011;42744;51.094;3.490;2023-04-25T06:34:17;9.67;;;1.90;;
56860;SDS011;42744;51.094;3.490;2023-04-25T06:36:43;10.63;;;2.03;;
56860;SDS011;42744;51.094;3.490;2023-04-25T06:39:10;8.97;;;1.97;;
56860;SDS011;42744;51.094;3.490;2023-04-25T06:41:36;11.73;;;2.40;;
56860;SDS011;42744;51.094;3.490;2023-04-25T06:44:04;9.73;;;1.70;;
56860;SDS011;42744;51.094;3.490;2023-04-25T06:46:31;7.13;;;1.83;;
56860;SDS011;42744;51.094;3.490;2023-04-25T06:48:57;6.80;;;1.80;;
56860;SDS011;42744;51.094;3.490;2023-04-25T06:51:23;10.00;;;1.97;;
56860;SDS011;42744;51.094;3.490;2023-04-25T06:53:50;12.50;;;2.23;;
56860;SDS011;42744;51.094;3.490;2023-04-25T06:56:17;6.80;;;1.57;;
56860;SDS011;42744;51.094;3.490;2023-04-25T06:58:44;5.97;;;1.70;;
56860;SDS011;42744;51.094;3.490;2023-04-25T07:01:10;7.80;;;1.90;;
56860;SDS011;42744;51.094;3.490;2023-04-25T07:03:36;11.10;;;1.70;;
56860;SDS011;42744;51.094;3.490;2023-04-25T07:06:05;8.07;;;1.63;;
56860;SDS011;42744;51.094;3.490;2023-04-25T07:08:31;8.10;;;2.47;;
56860;SDS011;42744;51.094;3.490;2023-04-25T07:10:57;8.73;;;1.70;;
56860;SDS011;42744;51.094;3.490;2023-04-25T07:13:23;6.47;;;1.50;;
56860;SDS011;42744;51.094;3.490;2023-04-25T07:15:49;4.97;;;1.50;;
56860;SDS011;42744;51.094;3.490;2023-04-25T07:18:16;6.13;;;1.63;;
56860;SDS011;42744;51.094;3.490;2023-04-25T07:20:42;9.20;;;1.93;;
56860;SDS011;42744;51.094;3.490;2023-04-25T07:23:08;4.73;;;1.13;;
56860;SDS011;42744;51.094;3.490;2023-04-25T07:25:34;9.47;;;1.40;;
56860;SDS011;42744;51.094;3.490;2023-04-25T07:28:01;3.63;;;1.07;;
56860;SDS011;42744;51.094;3.490;2023-04-25T07:30:27;6.87;;;1.47;;
56860;SDS011;42744;51.094;3.490;2023-04-25T07:32:53;6.23;;;0.97;;
56860;SDS011;42744;51.094;3.490;2023-04-25T07:35:19;6.17;;;1.50;;
56860;SDS011;42744;51.094;3.490;2023-04-25T07:37:47;11.40;;;1.73;;
56860;SDS011;42744;51.094;3.490;2023-04-25T07:40:13;10.73;;;2.60;;
56860;SDS011;42744;51.094;3.490;2023-04-25T07:42:42;8.53;;;2.57;;
56860;SDS011;42744;51.094;3.490;2023-04-25T07:45:08;9.00;;;2.23;;
56860;SDS011;42744;51.094;3.490;2023-04-25T07:47:36;8.30;;;1.97;;
56860;SDS011;42744;51.094;3.490;2023-04-25T07:50:03;6.97;;;1.83;;
56860;SDS011;42744;51.094;3.490;2023-04-25T07:52:30;8.60;;;1.40;;
56860;SDS011;42744;51.094;3.490;2023-04-25T07:54:59;7.30;;;1.33;;
56860;SDS011;42744;51.094;3.490;2023-04-25T07:57:26;6.67;;;1.57;;
56860;SDS011;42744;51.094;3.490;2023-04-25T07:59:54;9.30;;;1.80;;
56860;SDS011;42744;51.094;3.490;2023-04-25T08:02:21;7.60;;;1.77;;
56860;SDS011;42744;51.094;3.490;2023-04-25T08:04:47;5.93;;;1.30;;
56860;SDS011;42744;51.094;3.490;2023-04-25T08:07:15;7.47;;;1.57;;
56860;SDS011;42744;51.094;3.490;2023-04-25T08:09:41;7.70;;;1.33;;
56860;SDS011;42744;51.094;3.490;2023-04-25T08:12:09;4.10;;;0.90;;
56860;SDS011;42744;51.094;3.490;2023-04-25T08:14:35;8.37;;;1.30;;
56860;SDS011;42744;51.094;3.490;2023-04-25T08:17:05;8.23;;;2.40;;
56860;SDS011;42744;51.094;3.490;2023-04-25T08:19:31;4.87;;;1.03;;
56860;SDS011;42744;51.094;3.490;2023-04-25T08:21:57;7.73;;;1.20;;
56860;SDS011;42744;51.094;3.490;2023-04-25T08:24:24;4.70;;;1.03;;
56860;SDS011;42744;51.094;3.490;2023-04-25T08:26:50;4.87;;;1.20;;
56860;SDS011;42744;51.094;3.490;2023-04-25T08:29:20;11.07;;;1.17;;
56860;SDS011;42744;51.094;3.490;2023-04-25T08:31:48;4.07;;;0.90;;
56860;SDS011;42744;51.094;3.490;2023-04-25T08:34:15;6.37;;;1.27;;
56860;SDS011;42744;51.094;3.490;2023-04-25T08:36:41;4.70;;;0.90;;
56860;SDS011;42744;51.094;3.490;2023-04-25T08:39:12;5.97;;;1.10;;
56860;SDS011;42744;51.094;3.490;2023-04-25T08:41:40;3.57;;;0.93;;
56860;SDS011;42744;51.094;3.490;2023-04-25T08:44:07;7.83;;;1.30;;
56860;SDS011;42744;51.094;3.490;2023-04-25T08:46:40;5.53;;;1.07;;
56860;SDS011;42744;51.094;3.490;2023-04-25T08:49:07;6.27;;;1.10;;
56860;SDS011;42744;51.094;3.490;2023-04-25T08:51:40;3.73;;;0.80;;
56860;SDS011;42744;51.094;3.490;2023-04-25T08:54:14;5.03;;;1.37;;
56860;SDS011;42744;51.094;3.490;2023-04-25T08:56:40;5.40;;;1.13;;
56860;SDS011;42744;51.094;3.490;2023-04-25T08:59:10;3.87;;;1.20;;
56860;SDS011;42744;51.094;3.490;2023-04-25T09:01:37;4.63;;;1.10;;
56860;SDS011;42744;51.094;3.490;2023-04-25T09:04:03;3.37;;;1.00;;
56860;SDS011;42744;51.094;3.490;2023-04-25T09:06:30;4.83;;;0.90;;
56860;SDS011;42744;51.094;3.490;2023-04-25T09:09:05;3.27;;;1.00;;
56860;SDS011;42744;51.094;3.490;2023-04-25T09:11:33;4.57;;;1.23;;
56860;SDS011;42744;51.094;3.490;2023-04-25T09:14:14;4.73;;;1.10;;
56860;SDS011;42744;51.094;3.490;2023-04-25T09:19:24;5.77;;;1.10;;
56860;SDS011;42744;51.094;3.490;2023-04-25T09:21:56;7.40;;;1.40;;
56860;SDS011;42744;51.094;3.490;2023-04-25T09:26:56;4.10;;;1.20;;
56860;SDS011;42744;51.094;3.490;2023-04-25T09:29:29;6.53;;;1.30;;
56860;SDS011;42744;51.094;3.490;2023-04-25T09:32:10;5.20;;;0.97;;
56860;SDS011;42744;51.094;3.490;2023-04-25T09:34:39;6.33;;;1.47;;
56860;SDS011;42744;51.094;3.490;2023-04-25T09:37:08;7.20;;;1.03;;
56860;SDS011;42744;51.094;3.490;2023-04-25T09:39:39;3.63;;;0.97;;
56860;SDS011;42744;51.094;3.490;2023-04-25T09:42:07;6.00;;;1.30;;
56860;SDS011;42744;51.094;3.490;2023-04-25T09:44:35;6.27;;;1.13;;
56860;SDS011;42744;51.094;3.490;2023-04-25T09:47:01;1.70;;;0.63;;
56860;SDS011;42744;51.094;3.490;2023-04-25T09:49:28;2.47;;;0.70;;
56860;SDS011;42744;51.094;3.490;2023-04-25T09:51:58;2.20;;;0.77;;
56860;SDS011;42744;51.094;3.490;2023-04-25T09:54:26;3.53;;;0.70;;
56860;SDS011;42744;51.094;3.490;2023-04-25T09:56:53;2.83;;;0.83;;
56860;SDS011;42744;51.094;3.490;2023-04-25T09:59:20;2.47;;;0.80;;
56860;SDS011;42744;51.094;3.490;2023-04-25T10:01:48;2.17;;;0.60;;
56860;SDS011;42744;51.094;3.490;2023-04-25T10:04:24;3.70;;;0.77;;
56860;SDS011;42744;51.094;3.490;2023-04-25T10:06:53;3.93;;;0.90;;
56860;SDS011;42744;51.094;3.490;2023-04-25T10:09:24;7.00;;;1.10;;
56860;SDS011;42744;51.094;3.490;2023-04-25T10:11:51;4.43;;;0.83;;
56860;SDS011;42744;51.094;3.490;2023-04-25T10:14:18;5.90;;;1.17;;
56860;SDS011;42744;51.094;3.490;2023-04-25T10:16:45;5.37;;;1.33;;
56860;SDS011;42744;51.094;3.490;2023-04-25T10:19:12;3.20;;;1.03;;
56860;SDS011;42744;51.094;3.490;2023-04-25T10:21:46;2.30;;;0.90;;
56860;SDS011;42744;51.094;3.490;2023-04-25T10:24:16;5.60;;;0.67;;
56860;SDS011;42744;51.094;3.490;2023-04-25T10:26:43;4.30;;;1.00;;
56860;SDS011;42744;51.094;3.490;2023-04-25T10:29:09;3.07;;;0.60;;
56860;SDS011;42744;51.094;3.490;2023-04-25T10:31:37;4.67;;;1.37;;
56860;SDS011;42744;51.094;3.490;2023-04-25T10:34:12;1.90;;;0.87;;
56860;SDS011;42744;51.094;3.490;2023-04-25T10:36:39;4.37;;;1.50;;
56860;SDS011;42744;51.094;3.490;2023-04-25T10:39:05;7.07;;;1.27;;
56860;SDS011;42744;51.094;3.490;2023-04-25T10:41:47;6.73;;;0.97;;
56860;SDS011;42744;51.094;3.490;2023-04-25T10:44:19;4.27;;;1.13;;
56860;SDS011;42744;51.094;3.490;2023-04-25T10:46:44;6.87;;;1.93;;
56860;SDS011;42744;51.094;3.490;2023-04-25T10:49:11;8.10;;;1.20;;
56860;SDS011;42744;51.094;3.490;2023-04-25T10:52:14;8.03;;;2.03;;
56860;SDS011;42744;51.094;3.490;2023-04-25T10:54:41;8.00;;;1.30;;
56860;SDS011;42744;51.094;3.490;2023-04-25T10:57:25;4.10;;;0.80;;
56860;SDS011;42744;51.094;3.490;2023-04-25T11:00:14;4.57;;;1.40;;
56860;SDS011;42744;51.094;3.490;2023-04-25T11:02:45;4.17;;;0.90;;
56860;SDS011;42744;51.094;3.490;2023-04-25T11:05:18;8.23;;;0.90;;
56860;SDS011;42744;51.094;3.490;2023-04-25T11:07:54;5.77;;;1.27;;
56860;SDS011;42744;51.094;3.490;2023-04-25T11:10:40;2.57;;;0.83;;
56860;SDS011;42744;51.094;3.490;2023-04-25T11:13:07;4.67;;;1.17;;
56860;SDS011;42744;51.094;3.490;2023-04-25T11:15:33;2.83;;;0.87;;
56860;SDS011;42744;51.094;3.490;2023-04-25T11:17:59;2.63;;;0.70;;
56860;SDS011;42744;51.094;3.490;2023-04-25T11:20:25;4.77;;;0.90;;
56860;SDS011;42744;51.094;3.490;2023-04-25T11:22:51;6.00;;;1.00;;
56860;SDS011;42744;51.094;3.490;2023-04-25T11:25:17;5.63;;;1.00;;
56860;SDS011;42744;51.094;3.490;2023-04-25T11:27:56;2.73;;;0.90;;
56860;SDS011;42744;51.094;3.490;2023-04-25T11:30:24;3.50;;;1.10;;
56860;SDS011;42744;51.094;3.490;2023-04-25T11:32:51;3.17;;;0.77;;
56860;SDS011;42744;51.094;3.490;2023-04-25T11:35:18;4.50;;;1.00;;
56860;SDS011;42744;51.094;3.490;2023-04-25T11:37:46;3.90;;;1.00;;
56860;SDS011;42744;51.094;3.490;2023-04-25T11:40:12;4.13;;;1.30;;
56860;SDS011;42744;51.094;3.490;2023-04-25T11:42:39;5.10;;;1.03;;
56860;SDS011;42744;51.094;3.490;2023-04-25T11:45:11;5.57;;;1.07;;
56860;SDS011;42744;51.094;3.490;2023-04-25T11:47:38;6.97;;;1.23;;
56860;SDS011;42744;51.094;3.490;2023-04-25T11:50:04;4.33;;;1.13;;
56860;SDS011;42744;51.094;3.490;2023-04-25T11:52:50;7.77;;;1.27;;
56860;SDS011;42744;51.094;3.490;2023-04-25T11:55:18;7.63;;;1.17;;
56860;SDS011;42744;51.094;3.490;2023-04-25T11:57:47;3.93;;;1.20;;
56860;SDS011;42744;51.094;3.490;2023-04-25T12:00:15;3.30;;;1.07;;
56860;SDS011;42744;51.094;3.490;2023-04-25T12:02:43;8.20;;;2.13;;
56860;SDS011;42744;51.094;3.490;2023-04-25T12:05:10;4.17;;;1.33;;
56860;SDS011;42744;51.094;3.490;2023-04-25T12:07:37;6.07;;;1.40;;
56860;SDS011;42744;51.094;3.490;2023-04-25T12:10:04;5.00;;;0.87;;
56860;SDS011;42744;51.094;3.490;2023-04-25T12:12:36;12.53;;;1.03;;
56860;SDS011;42744;51.094;3.490;2023-04-25T12:15:09;4.40;;;0.90;;
56860;SDS011;42744;51.094;3.490;2023-04-25T12:17:38;4.43;;;0.80;;
56860;SDS011;42744;51.094;3.490;2023-04-25T12:20:12;3.67;;;1.13;;
56860;SDS011;42744;51.094;3.490;2023-04-25T12:22:40;4.53;;;1.00;;
56860;SDS011;42744;51.094;3.490;2023-04-25T12:25:20;3.77;;;1.00;;
56860;SDS011;42744;51.094;3.490;2023-04-25T12:33:23;3.77;;;1.10;;
56860;SDS011;42744;51.094;3.490;2023-04-25T12:36:09;7.10;;;1.10;;
56860;SDS011;42744;51.094;3.490;2023-04-25T12:38:37;2.50;;;0.80;;
56860;SDS011;42744;51.094;3.490;2023-04-25T12:41:05;4.77;;;1.13;;
56860;SDS011;42744;51.094;3.490;2023-04-25T12:43:31;5.50;;;1.30;;
56860;SDS011;42744;51.094;3.490;2023-04-25T12:45:58;6.07;;;0.97;;
56860;SDS011;42744;51.094;3.490;2023-04-25T12:48:24;3.23;;;0.97;;
56860;SDS011;42744;51.094;3.490;2023-04-25T12:50:50;2.70;;;0.60;;
56860;SDS011;42744;51.094;3.490;2023-04-25T12:53:18;3.37;;;1.13;;
56860;SDS011;42744;51.094;3.490;2023-04-25T12:55:45;4.87;;;0.90;;
56860;SDS011;42744;51.094;3.490;2023-04-25T12:58:12;4.83;;;1.30;;
56860;SDS011;42744;51.094;3.490;2023-04-25T13:00:43;6.83;;;1.53;;
56860;SDS011;42744;51.094;3.490;2023-04-25T13:03:09;6.03;;;1.30;;
56860;SDS011;42744;51.094;3.490;2023-04-25T13:05:36;7.67;;;1.40;;
56860;SDS011;42744;51.094;3.490;2023-04-25T13:08:03;6.27;;;1.20;;
56860;SDS011;42744;51.094;3.490;2023-04-25T13:10:29;6.00;;;1.30;;
56860;SDS011;42744;51.094;3.490;2023-04-25T13:12:55;4.70;;;1.07;;
56860;SDS011;42744;51.094;3.490;2023-04-25T13:15:22;4.13;;;1.17;;
56860;SDS011;42744;51.094;3.490;2023-04-25T13:17:48;5.57;;;1.20;;
56860;SDS011;42744;51.094;3.490;2023-04-25T13:20:14;4.10;;;1.17;;
56860;SDS011;42744;51.094;3.490;2023-04-25T13:22:41;4.63;;;0.90;;
56860;SDS011;42744;51.094;3.490;2023-04-25T13:25:08;2.60;;;0.80;;
56860;SDS011;42744;51.094;3.490;2023-04-25T13:27:35;5.30;;;1.00;;
56860;SDS011;42744;51.094;3.490;2023-04-25T13:30:05;4.37;;;1.17;;
56860;SDS011;42744;51.094;3.490;2023-04-25T13:32:34;4.37;;;1.20;;
56860;SDS011;42744;51.094;3.490;2023-04-25T13:35:02;2.20;;;0.80;;
56860;SDS011;42744;51.094;3.490;2023-04-25T13:37:34;3.70;;;1.00;;
56860;SDS011;42744;51.094;3.490;2023-04-25T13:40:00;5.87;;;1.50;;
56860;SDS011;42744;51.094;3.490;2023-04-25T13:42:33;2.17;;;0.60;;
56860;SDS011;42744;51.094;3.490;2023-04-25T13:44:59;4.60;;;1.00;;
56860;SDS011;42744;51.094;3.490;2023-04-25T13:47:25;6.40;;;1.07;;
56860;SDS011;42744;51.094;3.490;2023-04-25T13:49:52;5.80;;;1.13;;
56860;SDS011;42744;51.094;3.490;2023-04-25T13:52:18;7.73;;;1.10;;
56860;SDS011;42744;51.094;3.490;2023-04-25T13:54:44;7.77;;;1.20;;
56860;SDS011;42744;51.094;3.490;2023-04-25T13:57:10;3.93;;;1.07;;
56860;SDS011;42744;51.094;3.490;2023-04-25T13:59:37;3.43;;;1.37;;
56860;SDS011;42744;51.094;3.490;2023-04-25T14:02:03;3.73;;;1.00;;
56860;SDS011;42744;51.094;3.490;2023-04-25T14:04:29;4.93;;;0.90;;
56860;SDS011;42744;51.094;3.490;2023-04-25T14:06:55;3.27;;;1.00;;
56860;SDS011;42744;51.094;3.490;2023-04-25T14:09:21;2.87;;;0.80;;
56860;SDS011;42744;51.094;3.490;2023-04-25T14:11:51;5.70;;;1.23;;
56860;SDS011;42744;51.094;3.490;2023-04-25T14:14:21;4.70;;;1.07;;
56860;SDS011;42744;51.094;3.490;2023-04-25T14:16:47;2.10;;;0.80;;
56860;SDS011;42744;51.094;3.490;2023-04-25T14:19:14;3.10;;;0.90;;
56860;SDS011;42744;51.094;3.490;2023-04-25T14:21:41;5.13;;;0.93;;
56860;SDS011;42744;51.094;3.490;2023-04-25T14:24:08;4.37;;;0.93;;
56860;SDS011;42744;51.094;3.490;2023-04-25T14:26:34;4.87;;;0.80;;
56860;SDS011;42744;51.094;3.490;2023-04-25T14:29:01;5.10;;;1.00;;
56860;SDS011;42744;51.094;3.490;2023-04-25T14:31:27;5.10;;;1.17;;
56860;SDS011;42744;51.094;3.490;2023-04-25T14:33:53;3.73;;;0.90;;
56860;SDS011;42744;51.094;3.490;2023-04-25T14:36:19;5.93;;;1.20;;
56860;SDS011;42744;51.094;3.490;2023-04-25T14:38:45;3.80;;;0.90;;
56860;SDS011;42744;51.094;3.490;2023-04-25T14:41:12;4.93;;;1.07;;
56860;SDS011;42744;51.094;3.490;2023-04-25T14:43:38;3.50;;;1.23;;
56860;SDS011;42744;51.094;3.490;2023-04-25T14:46:05;6.03;;;1.27;;
56860;SDS011;42744;51.094;3.490;2023-04-25T14:48:32;4.70;;;0.80;;
56860;SDS011;42744;51.094;3.490;2023-04-25T14:50:59;4.73;;;1.10;;
56860;SDS011;42744;51.094;3.490;2023-04-25T14:53:25;2.40;;;0.67;;
56860;SDS011;42744;51.094;3.490;2023-04-25T14:55:52;3.77;;;1.00;;
56860;SDS011;42744;51.094;3.490;2023-04-25T14:58:19;9.73;;;1.00;;